Flight Track Log - Related Links

Times and Time Zones

All times are in EDT time to prevent confusion due to time zone crossing. See the NDU48 flight status page for this flight to view local times or setup timezone preferences in your user account.

Time Position Orientation Groundspeed Altitude Reporting Facility
EDT Latitude Longitude Course Direction KTS MPH feet Rate Location/Type
Tue 02:49:27 PM 47.9631 -97.1672 North 75 86 1,400  Level Minneapolis Center
Tue 02:50:28 PM 47.9836 -97.1639 North 76 87 2,200 661 Climbing Minneapolis Center
Tue 02:51:16 PM 47.9956 -97.1589 16° North 76 87 2,600 606 Climbing Minneapolis Center
Tue 02:52:17 PM 48.0050 -97.1131 73° East 88 101 3,300 683 Climbing Minneapolis Center
Tue 02:53:19 PM 47.9858 -97.0908 142° Southeast 85 98 4,000 677 Climbing Minneapolis Center
Tue 02:54:21 PM 47.9658 -97.0761 154° Southeast 84 97 4,700 484 Climbing Minneapolis Center
Tue 02:55:23 PM 47.9403 -97.0733 176° South 86 99 5,000 137 Climbing Minneapolis Center
Tue 02:56:32 PM 47.9056 -97.0956 203° Southwest 106 122 5,000  Level Minneapolis Center
Tue 02:57:26 PM 47.8842 -97.1097 204° Southwest 106 122 5,000 50 Level Minneapolis Center
Tue 02:58:33 PM 47.8494 -97.1325 204° Southwest 110 127 5,100  Climbing Minneapolis Center
Tue 02:59:29 PM 47.8236 -97.1500 204° Southwest 108 124 5,000 -51 Descending Minneapolis Center
Tue 03:00:31 PM 47.7892 -97.1350 164° South 119 137 5,000  Level Minneapolis Center
Tue 03:01:33 PM 47.7558 -97.1242 168° South 122 140 5,000 48 Level Minneapolis Center
Tue 03:02:35 PM 47.7206 -97.1161 171° South 119 137 5,100 49 Climbing Minneapolis Center
Tue 03:03:36 PM 47.6881 -97.0997 161° South 121 139 5,100  Level Minneapolis Center
Tue 03:04:37 PM 47.6539 -97.0928 172° South 122 140 5,100  Level Minneapolis Center
Tue 03:05:37 PM 47.6197 -97.0828 169° South 122 140 5,100 -50 Level Minneapolis Center
Tue 03:06:38 PM 47.5875 -97.0725 168° South 121 139 5,000 -49 Descending Minneapolis Center
Tue 03:07:39 PM 47.5536 -97.0686 176° South 121 139 5,000  Level Minneapolis Center
Tue 03:08:45 PM 47.5172 -97.0542 165° South 122 140 5,000  Level Minneapolis Center
Tue 03:09:46 PM 47.4828 -97.0394 164° South 123 142 5,000  Level Minneapolis Center
Tue 03:10:48 PM 47.4472 -97.0264 166° South 125 144 5,000  Level Minneapolis Center
Tue 03:11:50 PM 47.4150 -97.0183 170° South 123 142 5,000  Level Minneapolis Center
Tue 03:12:52 PM 47.3794 -97.0103 171° South 124 143 5,000  Level Minneapolis Center
Tue 03:13:53 PM 47.3525 -97.0022 169° South 122 140 5,000  Level Minneapolis Center
Tue 03:14:55 PM 47.3094 -96.9944 173° South 123 142 5,000 145 Level Minneapolis Center
Tue 03:15:57 PM 47.2772 -96.9853 169° South 121 139 5,300 488 Climbing Minneapolis Center
Tue 03:16:58 PM 47.2508 -96.9697 158° South 101 116 6,000 341 Climbing Minneapolis Center
Tue 03:18:00 PM 47.2189 -96.9533 161° South 113 130 6,000  Level Minneapolis Center
Tue 03:19:02 PM 47.1831 -96.9433 169° South 125 144 6,000  Level Minneapolis Center
Tue 03:20:03 PM 47.1461 -96.9342 170° South 128 147 6,000  Level Minneapolis Center
Tue 03:21:05 PM 47.1125 -96.9283 173° South 126 145 6,000  Level Minneapolis Center
Tue 03:22:07 PM 47.0769 -96.9253 177° South 124 143 6,000  Level Minneapolis Center
Tue 03:23:08 PM 47.0406 -96.9242 179° South 125 144 6,000 -49 Level Minneapolis Center
Tue 03:24:10 PM 47.0044 -96.9167 172° South 124 143 5,900  Descending Minneapolis Center
Tue 03:25:12 PM 46.9714 -96.9067 168° South 126 145 6,000 49 Climbing Minneapolis Center
Tue 03:26:13 PM 46.9350 -96.8944 167° South 129 148 6,000  Level Minneapolis Center
Tue 03:27:15 PM 46.8981 -96.8842 169° South 130 150 6,000  Level Minneapolis Center
Tue 03:28:17 PM 46.8625 -96.8753 170° South 126 145 6,000  Level Minneapolis Center
Tue 03:29:19 PM 46.8250 -96.8675 172° South 131 151 6,000  Level Minneapolis Center
Tue 03:30:20 PM 46.7881 -96.8617 174° South 128 147 6,000 -49 Level Minneapolis Center
Tue 03:31:22 PM 46.7542 -96.8497 166° South 122 140 5,900  Descending Minneapolis Center
Tue 03:32:36 PM 46.7347 -96.8658 210° Southwest 97 112 6,000  Climbing Minneapolis Center
Tue 03:33:38 PM 46.7614 -96.8528 19° North 105 121 5,900  Descending Minneapolis Center
Tue 03:34:40 PM 46.7781 -96.8197 54° Northeast 106 122 6,000 49 Climbing Minneapolis Center
Tue 03:35:41 PM 46.7564 -96.8103 163° South 110 127 6,000  Level Minneapolis Center
Tue 03:36:43 PM 46.7561 -96.8472 269° West 89 102 6,000  Level Minneapolis Center
Tue 03:37:45 PM 46.7711 -96.8661 319° Northwest 93 107 6,000  Level Minneapolis Center
Tue 03:38:47 PM 46.7939 -96.8406 38° Northeast 97 112 6,000  Level Minneapolis Center
Tue 03:39:49 PM 46.7931 -96.8017 92° East 118 136 6,000  Level Minneapolis Center
Tue 03:40:50 PM 46.7736 -96.8231 217° Southwest 99 114 6,000  Level Minneapolis Center
Tue 03:41:52 PM 46.7522 -96.8508 222° Southwest 105 121 6,000  Level Minneapolis Center
Tue 03:42:54 PM 46.7628 -96.8678 312° West 93 107 6,000  Level Minneapolis Center
Tue 03:43:56 PM 46.7794 -96.8403 48° Northeast 119 137 6,000  Level Minneapolis Center
Tue 03:44:58 PM 46.7542 -96.8439 186° South 105 121 6,000  Level Minneapolis Center
Tue 03:46:00 PM 46.7328 -96.8664 216° Southwest 113 130 6,000  Level Minneapolis Center
Tue 03:47:01 PM 46.7136 -96.8933 224° Southwest 93 107 6,000  Level Minneapolis Center
Tue 03:48:03 PM 46.6919 -96.9206 221° Southwest 97 112 6,000  Level Minneapolis Center
Tue 03:49:05 PM 46.6689 -96.9478 219° Southwest 101 116 6,000  Level Minneapolis Center
Tue 03:50:07 PM 46.6450 -96.9453 176° South 116 133 6,000  Level Minneapolis Center
Tue 03:51:09 PM 46.6428 -96.8864 93° East 122 140 6,000  Level Minneapolis Center
Tue 03:52:11 PM 46.6439 -96.8347 88° East 122 140 6,000 -49 Level Minneapolis Center
Tue 03:53:12 PM 46.6444 -96.7844 89° East 120 138 5,900  Descending Minneapolis Center
Tue 03:54:14 PM 46.6467 -96.7353 86° East 116 133 6,000 44 Climbing Minneapolis Center
Tue 03:55:28 PM 46.6583 -96.6908 69° East 102 117 6,000 -44 Level Minneapolis Center
Tue 03:56:30 PM 46.6772 -96.7083 328° Northwest 89 102 5,900 -244 Descending Minneapolis Center
Tue 03:57:31 PM 46.6842 -96.7339 292° West 84 97 5,500 -581 Descending Minneapolis Center
Tue 03:58:34 PM 46.6972 -96.7739 295° West 86 99 4,700 -677 Descending Minneapolis Center
Tue 03:59:35 PM 46.7081 -96.8025 299° West 84 97 4,100 -585 Descending Minneapolis Center
Tue 04:00:37 PM 46.7353 -96.8161 341° North 97 112 3,500 -581 Descending Minneapolis Center
Tue 04:01:39 PM 46.7647 -96.8178 358° North 103 119 2,900 -387 Descending Minneapolis Center
Tue 04:02:41 PM 46.7939 -96.8169 North 101 116 2,700 -49 Descending Minneapolis Center
Tue 04:03:42 PM 46.8206 -96.8181 358° North 94 108 2,800 -244 Climbing Minneapolis Center
Tue 04:04:44 PM 46.8458 -96.8169 North 93 107 2,200 -532 Descending Minneapolis Center
Tue 04:05:46 PM 46.8714 -96.8172 360° North 90 104 1,700 -484 Descending Minneapolis Center
Tue 04:06:48 PM 46.8964 -96.8167 North 86 99 1,200 -484 Descending Minneapolis Center

Login

Don't have an account? Register now (free) for customized features, flight alerts, and more!